SJV629 WAAA-WARR
Flight info
| Callsign | SJV629 |
|---|---|
| Flight time | 1h 15m |
| Altitude | 34000 |
| Route | ENDOG W32 SUSIL W32N KOLTA |
| Aircraft | A320/M-SDE3FGHIRWY/LB1 |
Departure
| Time | 2026-04-22 08:54 |
|---|---|
| Airport | Sultan Hasanuddin International Airport (WAAA) |
Arrival
| Time | 2026-04-22 10:09 |
|---|---|
| Airport | Juanda International Airport (WARR) |
| Time | Latitude | Longitude | Altitude | Speed | Heading |
|---|---|---|---|---|---|
| 2026-04-22 08:17 | -5.07814 | 119.54710 | 41 ft | 0 kts | 300° |
| 2026-04-22 08:42 | -5.07819 | 119.54720 | 39 ft | 2 kts | 300° |
| 2026-04-22 08:42 | -5.07827 | 119.54734 | 38 ft | 2 kts | 300° |
| 2026-04-22 08:42 | -5.07835 | 119.54749 | 37 ft | 2 kts | 299° |
| 2026-04-22 08:43 | -5.07836 | 119.54749 | 37 ft | 0 kts | 299° |
| 2026-04-22 08:44 | -5.07842 | 119.54761 | 38 ft | 2 kts | 299° |
| 2026-04-22 08:44 | -5.07851 | 119.54776 | 38 ft | 2 kts | 320° |
| 2026-04-22 08:44 | -5.07866 | 119.54781 | 40 ft | 2 kts | 8° |
| 2026-04-22 08:45 | -5.07881 | 119.54777 | 38 ft | 2 kts | 25° |
| 2026-04-22 08:45 | -5.07885 | 119.54775 | 38 ft | 0 kts | 28° |
| 2026-04-22 08:46 | -5.07872 | 119.54782 | 40 ft | 4 kts | 29° |
| 2026-04-22 08:46 | -5.07832 | 119.54805 | 41 ft | 11 kts | 30° |
| 2026-04-22 08:47 | -5.07744 | 119.54857 | 41 ft | 18 kts | 30° |
| 2026-04-22 08:47 | -5.07641 | 119.54917 | 41 ft | 10 kts | 30° |
| 2026-04-22 08:47 | -5.07587 | 119.54971 | 41 ft | 12 kts | 71° |
| 2026-04-22 08:47 | -5.07605 | 119.55057 | 41 ft | 14 kts | 117° |
| 2026-04-22 08:48 | -5.07592 | 119.55142 | 40 ft | 13 kts | 40° |
| 2026-04-22 08:48 | -5.07506 | 119.55194 | 41 ft | 16 kts | 31° |
| 2026-04-22 08:48 | -5.07405 | 119.55254 | 41 ft | 18 kts | 31° |
| 2026-04-22 08:48 | -5.07288 | 119.55319 | 41 ft | 20 kts | 30° |
| 2026-04-22 08:49 | -5.07160 | 119.55393 | 40 ft | 22 kts | 31° |
| 2026-04-22 08:49 | -5.07069 | 119.55446 | 41 ft | 23 kts | 30° |
| 2026-04-22 08:49 | -5.06922 | 119.55530 | 39 ft | 25 kts | 30° |
| 2026-04-22 08:49 | -5.06840 | 119.55578 | 40 ft | 1 kts | 30° |
| 2026-04-22 08:50 | -5.06826 | 119.55586 | 41 ft | 4 kts | 29° |
| 2026-04-22 08:50 | -5.06790 | 119.55606 | 41 ft | 7 kts | 29° |
| 2026-04-22 08:50 | -5.06736 | 119.55637 | 41 ft | 10 kts | 30° |
| 2026-04-22 08:50 | -5.06681 | 119.55674 | 41 ft | 9 kts | 49° |
| 2026-04-22 08:51 | -5.06668 | 119.55712 | 39 ft | 0 kts | 85° |
| 2026-04-22 08:51 | -5.06675 | 119.55739 | 41 ft | 8 kts | 121° |
| 2026-04-22 08:51 | -5.06680 | 119.55746 | 41 ft | 0 kts | 126° |
| 2026-04-22 08:52 | -5.06696 | 119.55769 | 40 ft | 9 kts | 126° |
| 2026-04-22 08:52 | -5.06764 | 119.55816 | 41 ft | 15 kts | 181° |
| 2026-04-22 08:52 | -5.06824 | 119.55791 | 41 ft | 0 kts | 208° |
| 2026-04-22 08:53 | -5.06851 | 119.55776 | 41 ft | 22 kts | 210° |
| 2026-04-22 08:53 | -5.07227 | 119.55558 | 39 ft | 99 kts | 210° |
| 2026-04-22 08:53 | -5.08003 | 119.55112 | 40 ft | 156 kts | 209° |
| 2026-04-22 08:53 | -5.08994 | 119.54543 | 505 ft | 165 kts | 209° |
| 2026-04-22 08:54 | -5.09997 | 119.53971 | 1252 ft | 166 kts | 211° |
| 2026-04-22 08:54 | -5.10955 | 119.53422 | 1609 ft | 160 kts | 211° |
| 2026-04-22 08:54 | -5.11988 | 119.52822 | 1886 ft | 183 kts | 211° |
| 2026-04-22 08:54 | -5.13076 | 119.52045 | 2360 ft | 203 kts | 228° |
| 2026-04-22 08:55 | -5.13736 | 119.50716 | 2763 ft | 227 kts | 261° |
| 2026-04-22 08:55 | -5.13781 | 119.49051 | 3258 ft | 250 kts | 270° |
| 2026-04-22 08:55 | -5.13751 | 119.47261 | 3778 ft | 270 kts | 271° |
| 2026-04-22 08:55 | -5.13725 | 119.45315 | 4608 ft | 278 kts | 270° |
| 2026-04-22 08:56 | -5.13712 | 119.43358 | 5506 ft | 282 kts | 270° |
| 2026-04-22 08:56 | -5.13707 | 119.41379 | 6394 ft | 285 kts | 270° |
| 2026-04-22 08:56 | -5.13708 | 119.39377 | 7224 ft | 289 kts | 270° |
| 2026-04-22 08:56 | -5.13710 | 119.37347 | 8043 ft | 293 kts | 270° |
| 2026-04-22 08:57 | -5.13712 | 119.35320 | 8852 ft | 297 kts | 271° |
| 2026-04-22 08:57 | -5.13714 | 119.33236 | 9673 ft | 301 kts | 271° |
| 2026-04-22 08:57 | -5.13731 | 119.31122 | 10327 ft | 309 kts | 266° |
| 2026-04-22 08:57 | -5.14227 | 119.28935 | 10557 ft | 333 kts | 252° |
| 2026-04-22 08:58 | -5.15022 | 119.26671 | 10797 ft | 354 kts | 250° |
| 2026-04-22 08:58 | -5.15894 | 119.24332 | 11401 ft | 360 kts | 250° |
| 2026-04-22 08:58 | -5.16771 | 119.21962 | 12099 ft | 365 kts | 250° |
| 2026-04-22 08:58 | -5.17646 | 119.19553 | 12775 ft | 370 kts | 250° |
| 2026-04-22 08:59 | -5.18519 | 119.17110 | 13463 ft | 374 kts | 250° |
| 2026-04-22 08:59 | -5.19396 | 119.14636 | 14079 ft | 378 kts | 251° |
| 2026-04-22 08:59 | -5.20279 | 119.12136 | 14702 ft | 381 kts | 251° |
| 2026-04-22 08:59 | -5.21169 | 119.09615 | 15287 ft | 385 kts | 251° |
| 2026-04-22 09:00 | -5.22066 | 119.07071 | 15870 ft | 389 kts | 251° |
| 2026-04-22 09:00 | -5.22964 | 119.04525 | 16436 ft | 393 kts | 251° |
| 2026-04-22 09:00 | -5.23881 | 119.01928 | 17006 ft | 396 kts | 251° |
| 2026-04-22 09:00 | -5.24806 | 118.99308 | 17561 ft | 400 kts | 251° |
| 2026-04-22 09:01 | -5.25738 | 118.96666 | 18107 ft | 404 kts | 251° |
| 2026-04-22 09:01 | -5.26680 | 118.93994 | 18583 ft | 407 kts | 251° |
| 2026-04-22 09:01 | -5.27626 | 118.91313 | 19075 ft | 409 kts | 251° |
| 2026-04-22 09:01 | -5.28577 | 118.88615 | 19552 ft | 412 kts | 251° |
| 2026-04-22 09:02 | -5.29537 | 118.85893 | 20029 ft | 414 kts | 251° |
| 2026-04-22 09:02 | -5.30500 | 118.83161 | 20497 ft | 417 kts | 251° |
| 2026-04-22 09:02 | -5.31471 | 118.80408 | 20973 ft | 420 kts | 251° |
| 2026-04-22 09:02 | -5.32448 | 118.77634 | 21421 ft | 423 kts | 251° |
| 2026-04-22 09:03 | -5.33418 | 118.74882 | 21873 ft | 425 kts | 251° |
| 2026-04-22 09:03 | -5.34409 | 118.72070 | 22324 ft | 428 kts | 251° |
| 2026-04-22 09:03 | -5.35405 | 118.69243 | 22773 ft | 431 kts | 251° |
| 2026-04-22 09:03 | -5.36407 | 118.66399 | 23223 ft | 433 kts | 251° |
| 2026-04-22 09:04 | -5.37413 | 118.63542 | 23609 ft | 436 kts | 251° |
| 2026-04-22 09:04 | -5.38428 | 118.60660 | 23968 ft | 439 kts | 251° |
| 2026-04-22 09:04 | -5.39446 | 118.57769 | 24402 ft | 438 kts | 251° |
| 2026-04-22 09:04 | -5.40442 | 118.54937 | 25362 ft | 420 kts | 250° |
| 2026-04-22 09:05 | -5.41391 | 118.52238 | 26471 ft | 399 kts | 250° |
| 2026-04-22 09:05 | -5.42290 | 118.49680 | 27573 ft | 379 kts | 250° |
| 2026-04-22 09:05 | -5.43151 | 118.47229 | 28381 ft | 369 kts | 250° |
| 2026-04-22 09:05 | -5.44008 | 118.44792 | 28618 ft | 374 kts | 250° |
| 2026-04-22 09:06 | -5.44877 | 118.42321 | 28879 ft | 377 kts | 250° |
| 2026-04-22 09:06 | -5.45751 | 118.39835 | 29192 ft | 378 kts | 250° |
| 2026-04-22 09:06 | -5.46628 | 118.37342 | 29469 ft | 381 kts | 250° |
| 2026-04-22 09:06 | -5.47512 | 118.34827 | 29743 ft | 383 kts | 250° |
| 2026-04-22 09:07 | -5.48390 | 118.32331 | 30017 ft | 385 kts | 250° |
| 2026-04-22 09:07 | -5.49282 | 118.29792 | 30315 ft | 385 kts | 250° |
| 2026-04-22 09:07 | -5.50172 | 118.27259 | 30631 ft | 385 kts | 250° |
| 2026-04-22 09:07 | -5.51065 | 118.24719 | 30883 ft | 387 kts | 250° |
| 2026-04-22 09:08 | -5.51963 | 118.22163 | 31169 ft | 388 kts | 250° |
| 2026-04-22 09:08 | -5.52860 | 118.19609 | 31455 ft | 388 kts | 250° |
| 2026-04-22 09:08 | -5.53759 | 118.17048 | 31714 ft | 390 kts | 250° |
| 2026-04-22 09:08 | -5.54663 | 118.14476 | 31959 ft | 391 kts | 250° |
| 2026-04-22 09:09 | -5.55570 | 118.11891 | 32228 ft | 392 kts | 250° |
| 2026-04-22 09:09 | -5.56478 | 118.09305 | 32485 ft | 393 kts | 250° |
| 2026-04-22 09:09 | -5.57387 | 118.06715 | 32730 ft | 394 kts | 250° |
| 2026-04-22 09:09 | -5.58299 | 118.04115 | 32944 ft | 396 kts | 250° |
| 2026-04-22 09:10 | -5.59216 | 118.01502 | 33181 ft | 397 kts | 250° |
| 2026-04-22 09:10 | -5.60121 | 117.98922 | 33436 ft | 397 kts | 250° |
| 2026-04-22 09:10 | -5.61042 | 117.96296 | 33684 ft | 398 kts | 250° |
| 2026-04-22 09:10 | -5.61965 | 117.93665 | 33829 ft | 402 kts | 250° |
| 2026-04-22 09:11 | -5.62901 | 117.90998 | 33833 ft | 409 kts | 250° |
| 2026-04-22 09:11 | -5.64821 | 117.85521 | 33836 ft | 423 kts | 250° |
| 2026-04-22 09:12 | -5.66807 | 117.79854 | 33833 ft | 437 kts | 250° |
| 2026-04-22 09:12 | -5.68857 | 117.74002 | 33832 ft | 451 kts | 250° |
| 2026-04-22 09:13 | -5.70969 | 117.67973 | 33831 ft | 464 kts | 250° |
| 2026-04-22 09:13 | -5.73120 | 117.61828 | 33833 ft | 466 kts | 250° |
| 2026-04-22 09:14 | -5.75266 | 117.55696 | 33839 ft | 466 kts | 250° |
| 2026-04-22 09:14 | -5.77413 | 117.49560 | 33837 ft | 466 kts | 250° |
| 2026-04-22 09:15 | -5.79546 | 117.43458 | 33837 ft | 465 kts | 250° |
| 2026-04-22 09:15 | -5.81687 | 117.37334 | 33833 ft | 465 kts | 250° |
| 2026-04-22 09:16 | -5.83827 | 117.31207 | 33831 ft | 464 kts | 250° |
| 2026-04-22 09:16 | -5.85964 | 117.25090 | 33826 ft | 464 kts | 250° |
| 2026-04-22 09:17 | -5.87889 | 117.18907 | 33829 ft | 464 kts | 257° |
| 2026-04-22 09:17 | -5.89035 | 117.12520 | 33827 ft | 464 kts | 259° |
| 2026-04-22 09:18 | -5.90161 | 117.06177 | 33837 ft | 464 kts | 259° |
| 2026-04-22 09:18 | -5.91297 | 116.99791 | 33837 ft | 465 kts | 259° |
| 2026-04-22 09:19 | -5.92430 | 116.93400 | 33832 ft | 465 kts | 259° |
| 2026-04-22 09:19 | -5.93563 | 116.86997 | 33838 ft | 465 kts | 259° |
| 2026-04-22 09:20 | -5.94696 | 116.80590 | 33843 ft | 466 kts | 259° |
| 2026-04-22 09:20 | -5.95823 | 116.74209 | 33837 ft | 467 kts | 259° |
| 2026-04-22 09:21 | -5.96959 | 116.67783 | 33844 ft | 467 kts | 259° |
| 2026-04-22 09:21 | -5.98094 | 116.61348 | 33849 ft | 468 kts | 259° |
| 2026-04-22 09:22 | -5.99238 | 116.54863 | 33845 ft | 477 kts | 259° |
| 2026-04-22 09:22 | -6.00401 | 116.48263 | 33846 ft | 486 kts | 259° |
| 2026-04-22 09:23 | -6.01580 | 116.41568 | 33847 ft | 486 kts | 259° |
| 2026-04-22 09:23 | -6.02759 | 116.34869 | 33850 ft | 487 kts | 259° |
| 2026-04-22 09:24 | -6.03937 | 116.28167 | 33842 ft | 487 kts | 259° |
| 2026-04-22 09:24 | -6.05115 | 116.21463 | 33846 ft | 487 kts | 259° |
| 2026-04-22 09:25 | -6.06292 | 116.14760 | 33843 ft | 487 kts | 259° |
| 2026-04-22 09:25 | -6.07471 | 116.08044 | 33848 ft | 487 kts | 259° |
| 2026-04-22 09:26 | -6.08640 | 116.01376 | 33848 ft | 488 kts | 259° |
| 2026-04-22 09:26 | -6.09818 | 115.94651 | 33845 ft | 488 kts | 260° |
| 2026-04-22 09:27 | -6.10994 | 115.87931 | 33854 ft | 488 kts | 260° |
| 2026-04-22 09:27 | -6.12170 | 115.81211 | 33848 ft | 489 kts | 260° |
| 2026-04-22 09:28 | -6.13346 | 115.74481 | 33846 ft | 489 kts | 260° |
| 2026-04-22 09:28 | -6.14524 | 115.67739 | 33850 ft | 489 kts | 260° |
| 2026-04-22 09:29 | -6.15691 | 115.61052 | 33849 ft | 489 kts | 260° |
| 2026-04-22 09:29 | -6.16866 | 115.54316 | 33846 ft | 489 kts | 260° |
| 2026-04-22 09:30 | -6.18040 | 115.47575 | 33849 ft | 489 kts | 260° |
| 2026-04-22 09:30 | -6.19213 | 115.40838 | 33849 ft | 489 kts | 260° |
| 2026-04-22 09:31 | -6.20386 | 115.34098 | 33846 ft | 490 kts | 260° |
| 2026-04-22 09:31 | -6.21558 | 115.27360 | 33852 ft | 490 kts | 260° |
| 2026-04-22 09:32 | -6.22731 | 115.20605 | 33846 ft | 490 kts | 260° |
| 2026-04-22 09:32 | -6.23895 | 115.13901 | 33852 ft | 490 kts | 260° |
| 2026-04-22 09:33 | -6.25067 | 115.07146 | 33850 ft | 490 kts | 260° |
| 2026-04-22 09:33 | -6.26237 | 115.00396 | 33850 ft | 491 kts | 260° |
| 2026-04-22 09:34 | -6.27408 | 114.93636 | 33854 ft | 491 kts | 260° |
| 2026-04-22 09:34 | -6.28578 | 114.86874 | 33851 ft | 491 kts | 260° |
| 2026-04-22 09:35 | -6.30334 | 114.76718 | 33848 ft | 491 kts | 260° |
| 2026-04-22 09:35 | -6.31498 | 114.69982 | 33851 ft | 492 kts | 260° |
| 2026-04-22 09:36 | -6.32668 | 114.63203 | 33848 ft | 492 kts | 260° |
| 2026-04-22 09:36 | -6.33837 | 114.56424 | 33848 ft | 492 kts | 260° |
| 2026-04-22 09:37 | -6.35005 | 114.49646 | 33848 ft | 492 kts | 260° |
| 2026-04-22 09:37 | -6.36172 | 114.42864 | 33854 ft | 492 kts | 260° |
| 2026-04-22 09:38 | -6.37338 | 114.36085 | 33850 ft | 492 kts | 260° |
| 2026-04-22 09:38 | -6.38505 | 114.29301 | 33852 ft | 492 kts | 260° |
| 2026-04-22 09:39 | -6.39669 | 114.22522 | 33850 ft | 493 kts | 260° |
| 2026-04-22 09:39 | -6.40828 | 114.15764 | 33845 ft | 493 kts | 260° |
| 2026-04-22 09:40 | -6.41994 | 114.08965 | 33860 ft | 493 kts | 260° |
| 2026-04-22 09:40 | -6.43159 | 114.02165 | 33855 ft | 494 kts | 261° |
| 2026-04-22 09:41 | -6.44129 | 113.96502 | 33852 ft | 494 kts | 261° |
| 2026-04-22 09:41 | -6.45492 | 113.88534 | 33848 ft | 495 kts | 261° |
| 2026-04-22 09:42 | -6.46462 | 113.82868 | 33851 ft | 495 kts | 261° |
| 2026-04-22 09:42 | -6.47893 | 113.76089 | 33839 ft | 496 kts | 257° |
| 2026-04-22 09:43 | -6.48699 | 113.72712 | 33634 ft | 496 kts | 257° |
| 2026-04-22 09:43 | -6.49494 | 113.69351 | 33447 ft | 489 kts | 257° |
| 2026-04-22 09:43 | -6.50255 | 113.66074 | 33251 ft | 471 kts | 257° |
| 2026-04-22 09:43 | -6.50977 | 113.62923 | 32970 ft | 455 kts | 257° |
| 2026-04-22 09:44 | -6.51676 | 113.59848 | 32259 ft | 449 kts | 257° |
| 2026-04-22 09:44 | -6.52367 | 113.56795 | 31508 ft | 445 kts | 257° |
| 2026-04-22 09:44 | -6.53040 | 113.53816 | 30821 ft | 440 kts | 257° |
| 2026-04-22 09:44 | -6.53714 | 113.50832 | 30139 ft | 435 kts | 257° |
| 2026-04-22 09:45 | -6.54383 | 113.47876 | 29399 ft | 430 kts | 257° |
| 2026-04-22 09:45 | -6.55042 | 113.44963 | 28763 ft | 427 kts | 257° |
| 2026-04-22 09:45 | -6.55700 | 113.42053 | 28206 ft | 425 kts | 257° |
| 2026-04-22 09:45 | -6.56354 | 113.39160 | 27654 ft | 423 kts | 257° |
| 2026-04-22 09:46 | -6.57005 | 113.36282 | 27119 ft | 421 kts | 257° |
| 2026-04-22 09:46 | -6.57646 | 113.33443 | 26819 ft | 412 kts | 257° |
| 2026-04-22 09:46 | -6.58277 | 113.30651 | 26211 ft | 406 kts | 257° |
| 2026-04-22 09:46 | -6.58899 | 113.27894 | 25518 ft | 402 kts | 257° |
| 2026-04-22 09:47 | -6.59514 | 113.25172 | 24967 ft | 396 kts | 257° |
| 2026-04-22 09:47 | -6.60122 | 113.22478 | 24471 ft | 396 kts | 257° |
| 2026-04-22 09:47 | -6.60722 | 113.19814 | 24052 ft | 392 kts | 257° |
| 2026-04-22 09:47 | -6.61317 | 113.17180 | 23781 ft | 377 kts | 257° |
| 2026-04-22 09:48 | -6.61886 | 113.14663 | 23550 ft | 362 kts | 257° |
| 2026-04-22 09:48 | -6.62440 | 113.12210 | 22969 ft | 358 kts | 257° |
| 2026-04-22 09:48 | -6.62990 | 113.09776 | 22340 ft | 355 kts | 257° |
| 2026-04-22 09:48 | -6.63534 | 113.07367 | 21728 ft | 351 kts | 257° |
| 2026-04-22 09:49 | -6.64072 | 113.04984 | 21148 ft | 348 kts | 258° |
| 2026-04-22 09:49 | -6.64606 | 113.02618 | 20570 ft | 344 kts | 258° |
| 2026-04-22 09:49 | -6.65134 | 113.00278 | 20010 ft | 341 kts | 258° |
| 2026-04-22 09:49 | -6.65657 | 112.97961 | 19479 ft | 337 kts | 258° |
| 2026-04-22 09:50 | -6.66167 | 112.95702 | 19036 ft | 334 kts | 258° |
| 2026-04-22 09:50 | -6.66681 | 112.93421 | 18571 ft | 332 kts | 258° |
| 2026-04-22 09:50 | -6.67190 | 112.91163 | 18089 ft | 329 kts | 258° |
| 2026-04-22 09:50 | -6.67695 | 112.88921 | 17600 ft | 328 kts | 258° |
| 2026-04-22 09:51 | -6.68200 | 112.86681 | 17137 ft | 327 kts | 258° |
| 2026-04-22 09:51 | -6.68699 | 112.84462 | 16693 ft | 323 kts | 258° |
| 2026-04-22 09:51 | -6.69198 | 112.82249 | 16217 ft | 325 kts | 258° |
| 2026-04-22 09:51 | -6.69698 | 112.80025 | 15773 ft | 326 kts | 258° |
| 2026-04-22 09:52 | -6.70192 | 112.77829 | 15539 ft | 319 kts | 258° |
| 2026-04-22 09:52 | -6.70678 | 112.75667 | 15186 ft | 316 kts | 258° |
| 2026-04-22 09:52 | -6.71160 | 112.73519 | 14759 ft | 313 kts | 258° |
| 2026-04-22 09:52 | -6.71639 | 112.71384 | 14222 ft | 311 kts | 258° |
| 2026-04-22 09:53 | -6.72114 | 112.69269 | 13707 ft | 309 kts | 258° |
| 2026-04-22 09:53 | -6.72586 | 112.67166 | 13165 ft | 306 kts | 258° |
| 2026-04-22 09:53 | -6.73047 | 112.65111 | 12636 ft | 303 kts | 258° |
| 2026-04-22 09:53 | -6.73507 | 112.63064 | 12310 ft | 299 kts | 258° |
| 2026-04-22 09:54 | -6.73972 | 112.60988 | 11919 ft | 306 kts | 258° |
| 2026-04-22 09:54 | -6.74434 | 112.58927 | 11735 ft | 297 kts | 258° |
| 2026-04-22 09:54 | -6.74879 | 112.56943 | 11487 ft | 286 kts | 258° |
| 2026-04-22 09:54 | -6.75314 | 112.55004 | 11193 ft | 282 kts | 258° |
| 2026-04-22 09:55 | -6.75744 | 112.53084 | 10960 ft | 282 kts | 258° |
| 2026-04-22 09:55 | -6.76176 | 112.51156 | 10726 ft | 282 kts | 258° |
| 2026-04-22 09:55 | -6.76883 | 112.49338 | 10483 ft | 279 kts | 236° |
| 2026-04-22 09:55 | -6.78270 | 112.47988 | 10260 ft | 281 kts | 210° |
| 2026-04-22 09:56 | -6.80114 | 112.47398 | 10030 ft | 279 kts | 182° |
| 2026-04-22 09:56 | -6.82015 | 112.47553 | 9867 ft | 278 kts | 171° |
| 2026-04-22 09:56 | -6.83927 | 112.47833 | 9752 ft | 278 kts | 171° |
| 2026-04-22 09:56 | -6.85842 | 112.48118 | 9625 ft | 278 kts | 171° |
| 2026-04-22 09:57 | -6.87753 | 112.48394 | 9451 ft | 278 kts | 171° |
| 2026-04-22 09:57 | -6.89671 | 112.48664 | 9107 ft | 278 kts | 172° |
| 2026-04-22 09:57 | -6.91585 | 112.48928 | 8742 ft | 277 kts | 172° |
| 2026-04-22 09:57 | -6.93493 | 112.49189 | 8384 ft | 276 kts | 172° |
| 2026-04-22 09:58 | -6.95391 | 112.49448 | 8034 ft | 274 kts | 172° |
| 2026-04-22 09:58 | -6.97257 | 112.49702 | 7684 ft | 273 kts | 172° |
| 2026-04-22 09:58 | -6.99135 | 112.49950 | 7409 ft | 269 kts | 172° |
| 2026-04-22 09:58 | -7.00982 | 112.50159 | 7124 ft | 266 kts | 173° |
| 2026-04-22 09:59 | -7.02811 | 112.50356 | 6852 ft | 263 kts | 173° |
| 2026-04-22 09:59 | -7.04643 | 112.50554 | 6606 ft | 265 kts | 173° |
| 2026-04-22 09:59 | -7.06467 | 112.50756 | 6346 ft | 262 kts | 173° |
| 2026-04-22 09:59 | -7.08270 | 112.50957 | 6083 ft | 262 kts | 173° |
| 2026-04-22 10:00 | -7.10081 | 112.51162 | 5830 ft | 260 kts | 173° |
| 2026-04-22 10:00 | -7.11867 | 112.51365 | 5576 ft | 258 kts | 173° |
| 2026-04-22 10:00 | -7.13655 | 112.51568 | 5332 ft | 258 kts | 172° |
| 2026-04-22 10:00 | -7.15435 | 112.51770 | 5088 ft | 256 kts | 172° |
| 2026-04-22 10:01 | -7.17197 | 112.51969 | 4838 ft | 254 kts | 172° |
| 2026-04-22 10:01 | -7.18938 | 112.52167 | 4593 ft | 253 kts | 172° |
| 2026-04-22 10:01 | -7.20676 | 112.52364 | 4348 ft | 253 kts | 172° |
| 2026-04-22 10:01 | -7.22417 | 112.52562 | 4100 ft | 251 kts | 172° |
| 2026-04-22 10:02 | -7.24153 | 112.52759 | 3856 ft | 251 kts | 172° |
| 2026-04-22 10:02 | -7.25880 | 112.52955 | 3621 ft | 249 kts | 172° |
| 2026-04-22 10:02 | -7.27593 | 112.53149 | 3504 ft | 247 kts | 172° |
| 2026-04-22 10:02 | -7.29304 | 112.53344 | 3487 ft | 248 kts | 172° |
| 2026-04-22 10:03 | -7.31010 | 112.53538 | 3489 ft | 240 kts | 172° |
| 2026-04-22 10:03 | -7.32583 | 112.53847 | 3465 ft | 222 kts | 154° |
| 2026-04-22 10:03 | -7.33752 | 112.54745 | 3377 ft | 207 kts | 124° |
| 2026-04-22 10:03 | -7.34322 | 112.56024 | 3216 ft | 197 kts | 102° |
| 2026-04-22 10:04 | -7.34571 | 112.57381 | 3143 ft | 201 kts | 97° |
| 2026-04-22 10:04 | -7.34775 | 112.58746 | 3111 ft | 187 kts | 98° |
| 2026-04-22 10:04 | -7.34972 | 112.59959 | 3012 ft | 165 kts | 98° |
| 2026-04-22 10:04 | -7.35145 | 112.61033 | 2935 ft | 147 kts | 98° |
| 2026-04-22 10:05 | -7.35306 | 112.62033 | 2825 ft | 142 kts | 98° |
| 2026-04-22 10:05 | -7.35462 | 112.63007 | 2679 ft | 140 kts | 98° |
| 2026-04-22 10:05 | -7.35619 | 112.63980 | 2524 ft | 140 kts | 98° |
| 2026-04-22 10:05 | -7.35773 | 112.64941 | 2361 ft | 141 kts | 98° |
| 2026-04-22 10:06 | -7.35930 | 112.65914 | 2183 ft | 141 kts | 98° |
| 2026-04-22 10:06 | -7.36087 | 112.66888 | 2005 ft | 141 kts | 98° |
| 2026-04-22 10:06 | -7.36243 | 112.67862 | 1827 ft | 140 kts | 98° |
| 2026-04-22 10:06 | -7.36400 | 112.68835 | 1650 ft | 140 kts | 98° |
| 2026-04-22 10:07 | -7.36556 | 112.69804 | 1467 ft | 140 kts | 98° |
| 2026-04-22 10:07 | -7.36712 | 112.70775 | 1286 ft | 140 kts | 98° |
| 2026-04-22 10:07 | -7.36868 | 112.71742 | 1104 ft | 140 kts | 98° |
| 2026-04-22 10:07 | -7.37023 | 112.72706 | 929 ft | 140 kts | 98° |
| 2026-04-22 10:08 | -7.37180 | 112.73682 | 765 ft | 141 kts | 99° |
| 2026-04-22 10:08 | -7.37331 | 112.74672 | 570 ft | 143 kts | 100° |
| 2026-04-22 10:08 | -7.37497 | 112.75670 | 373 ft | 146 kts | 100° |
| 2026-04-22 10:08 | -7.37657 | 112.76671 | 189 ft | 143 kts | 99° |
| 2026-04-22 10:09 | -7.37814 | 112.77653 | 21 ft | 143 kts | 100° |
| 2026-04-22 10:09 | -7.37962 | 112.78552 | 9 ft | 109 kts | 99° |
| 2026-04-22 10:09 | -7.38029 | 112.78971 | 9 ft | 30 kts | 99° |
| 2026-04-22 10:09 | -7.38043 | 112.79058 | 10 ft | 14 kts | 99° |
| 2026-04-22 10:10 | -7.38049 | 112.79190 | 11 ft | 24 kts | 82° |
| 2026-04-22 10:10 | -7.38008 | 112.79333 | 9 ft | 15 kts | 70° |
| 2026-04-22 10:10 | -7.37977 | 112.79400 | 9 ft | 9 kts | 36° |
| 2026-04-22 10:10 | -7.37906 | 112.79415 | 9 ft | 12 kts | 8° |
| 2026-04-22 10:11 | -7.37813 | 112.79431 | 9 ft | 13 kts | 10° |
| 2026-04-22 10:11 | -7.37726 | 112.79446 | 9 ft | 12 kts | 9° |
| 2026-04-22 10:11 | -7.37670 | 112.79405 | 9 ft | 12 kts | 280° |
| 2026-04-22 10:11 | -7.37656 | 112.79315 | 9 ft | 14 kts | 279° |
| 2026-04-22 10:12 | -7.37630 | 112.79238 | 9 ft | 11 kts | 321° |
| 2026-04-22 10:12 | -7.37559 | 112.79239 | 9 ft | 12 kts | 8° |
| 2026-04-22 10:12 | -7.37551 | 112.79240 | 9 ft | 0 kts | 8° |